Ellendale, North Carolina
Current Conditions -  °F | °C
As of 8:53 PM on Friday 28 Nov 2014 (Local Time) from KHKY Reporting Station
Clear Clear  
Wind Chill:   Ceiling: Unl
Heat Index:   Visibility: 10mi
Dew Point: -6°   Wind: 0mph
Humidity: 59%   Direction: NA
Pressure: 30.25"   Gusts: NA
Location:  35.9243°N, 81.216°W
Report Text: KHKY 290153Z AUTO 00000KT 10SM CLR 01/M06 A3025 RMK AO2 SLP243 T00111061
Loading
Personal Weather Stations






























Interactive Weather Map New forecast layout! Learn more

10-Day Weather Forecast

Advertisements
Track Severe Weather on mobile